createdAt,value
2023-03-23T15:58:15.646Z,93637.78
2023-03-23T15:59:12.675Z,93604.88
2023-03-23T16:00:10.056Z,93640.31
2023-03-23T16:01:19.590Z,93645.66
2023-03-23T16:02:24.213Z,93637.69
2023-03-23T16:03:27.807Z,93633.91
2023-03-23T16:04:24.724Z,93640.59
2023-03-23T16:05:21.603Z,93640.34
2023-03-23T16:06:24.339Z,93639.88
2023-03-23T16:07:23.923Z,93565.38
2023-03-23T16:08:20.817Z,93631.31
2023-03-23T16:09:19.822Z,93651.53
2023-03-23T16:10:19.408Z,93625.63
2023-03-23T16:11:18.388Z,93651.22
2023-03-23T16:12:15.105Z,93645.72
2023-03-23T16:13:11.941Z,93649.56
2023-03-23T16:14:08.759Z,93593.34
2023-03-23T16:15:06.244Z,93649.72
2023-03-23T16:16:05.054Z,93650.25
2023-03-23T16:17:01.678Z,93642.72
2023-03-23T16:17:59.007Z,93643.34
2023-03-23T16:18:56.045Z,93652.72
2023-03-23T16:19:52.778Z,93650.38
2023-03-23T16:20:50.254Z,93652.59
2023-03-23T16:21:46.880Z,93650.06
2023-03-23T16:22:43.813Z,93664.75
2023-03-23T16:23:41.417Z,93652.03
2023-03-23T16:24:38.545Z,93656.53
2023-03-23T16:25:35.513Z,93649.50
2023-03-23T16:26:32.262Z,93651.25
2023-03-23T16:27:28.887Z,93650.63
2023-03-23T16:28:25.700Z,93648.44
2023-03-23T16:29:40.112Z,93646.13
2023-03-23T16:30:40.870Z,93643.97
2023-03-23T16:31:37.464Z,93634.00
2023-03-23T16:33:29.558Z,93658.28
2023-03-23T16:34:29.018Z,93657.91
2023-03-23T16:35:26.306Z,93671.44
2023-03-23T16:36:22.972Z,93664.31
2023-03-23T16:37:19.569Z,93661.53
2023-03-23T16:38:17.616Z,93649.06
2023-03-23T16:39:15.933Z,93658.53
2023-03-23T16:40:13.640Z,93655.19
2023-03-23T16:41:13.157Z,93652.34
2023-03-23T16:42:09.899Z,93651.50
2023-03-23T16:43:08.628Z,93639.69
2023-03-23T16:44:06.848Z,93661.13
2023-03-23T16:45:03.826Z,93663.69
2023-03-23T16:46:00.439Z,93666.53
2023-03-23T16:46:57.172Z,93664.03
2023-03-23T16:47:55.987Z,93662.91
2023-03-23T16:48:52.634Z,93664.28
2023-03-23T16:49:51.066Z,93658.88
2023-03-23T16:50:47.681Z,93650.88
2023-03-23T16:51:44.303Z,93664.34
2023-03-23T16:52:46.527Z,93634.97
2023-03-23T16:53:43.365Z,93655.75
2023-03-23T16:54:39.983Z,93635.41
2023-03-23T16:55:39.534Z,93662.97
2023-03-23T16:56:36.236Z,93659.53
2023-03-23T16:57:35.903Z,93629.69
2023-03-23T16:58:32.612Z,93659.91
2023-03-23T16:59:29.366Z,93662.56
2023-03-23T17:00:27.260Z,93659.44
2023-03-23T17:01:24.067Z,93654.13
2023-03-23T17:02:20.782Z,93656.88
2023-03-23T17:03:19.405Z,93613.44
2023-03-23T17:04:16.181Z,93664.88
2023-03-23T17:05:14.536Z,93658.31
2023-03-23T17:06:11.299Z,93659.59
2023-03-23T17:07:07.963Z,93629.66
2023-03-23T17:08:05.929Z,93679.03
2023-03-23T17:09:02.542Z,93660.34
2023-03-23T17:10:00.527Z,93662.34
2023-03-23T17:10:57.394Z,93668.34
2023-03-23T17:11:54.821Z,93665.00
2023-03-23T17:12:51.404Z,93678.00
2023-03-23T17:13:48.495Z,93672.56
2023-03-23T17:14:45.292Z,93666.97
2023-03-23T17:15:46.018Z,93672.22
2023-03-23T17:16:43.685Z,93673.56
2023-03-23T17:17:40.409Z,93676.19
2023-03-23T17:18:37.100Z,93635.22
2023-03-23T17:19:34.252Z,93673.41
2023-03-23T17:20:31.536Z,93686.34
2023-03-23T17:21:28.135Z,93683.94
2023-03-23T17:22:25.759Z,93702.56
2023-03-23T17:23:22.908Z,93683.03
2023-03-23T17:24:20.505Z,93687.03
2023-03-23T17:25:17.189Z,93700.78
2023-03-23T17:26:13.817Z,93686.59
2023-03-23T17:27:11.463Z,93680.75
2023-03-23T17:28:08.072Z,93686.63
2023-03-23T17:29:05.399Z,93690.19
2023-03-23T17:30:03.957Z,93642.16
2023-03-23T17:31:00.578Z,93685.03
2023-03-23T17:31:57.237Z,93666.88
2023-03-23T17:32:54.718Z,93701.28
2023-03-23T17:33:52.792Z,93695.53
2023-03-23T17:34:49.588Z,93699.53
2023-03-23T17:35:47.636Z,93699.09
2023-03-23T17:36:44.676Z,93697.00
2023-03-23T17:37:41.686Z,93696.88
2023-03-23T17:38:38.345Z,93680.44
2023-03-23T17:39:43.292Z,93696.47
2023-03-23T17:40:40.696Z,93699.59
2023-03-23T17:41:37.377Z,93695.94
2023-03-23T17:42:34.356Z,93698.28
2023-03-23T17:43:31.635Z,93669.22
2023-03-23T17:44:28.410Z,93702.00
2023-03-23T17:45:25.078Z,93697.72
2023-03-23T17:46:21.823Z,93685.38
2023-03-23T17:47:18.666Z,93677.06
2023-03-23T17:48:15.328Z,93688.34
2023-03-23T17:49:12.080Z,93698.13
2023-03-23T17:50:11.813Z,93707.34
2023-03-23T17:51:09.288Z,93701.78
2023-03-23T17:52:05.943Z,93704.88
2023-03-23T17:53:03.215Z,93708.31
2023-03-23T17:53:59.807Z,93704.91
2023-03-23T17:54:56.382Z,93710.78
2023-03-23T17:55:53.545Z,93646.31
2023-03-23T17:56:50.286Z,93705.25
2023-03-23T17:57:47.179Z,93714.53
2023-03-23T17:58:43.792Z,93713.53
2023-03-23T17:59:40.500Z,93714.88
2023-03-23T18:00:37.717Z,93714.00
2023-03-23T18:01:34.580Z,93725.84
2023-03-23T18:02:31.295Z,93714.41
2023-03-23T18:03:28.088Z,93704.47
2023-03-23T18:04:27.029Z,93725.28
2023-03-23T18:05:24.644Z,93712.66
2023-03-23T18:06:21.385Z,93713.66
2023-03-23T18:07:23.411Z,93720.88
2023-03-23T18:08:20.042Z,93719.09
2023-03-23T18:09:16.636Z,93719.66
2023-03-23T18:10:13.402Z,93722.19
2023-03-23T18:11:12.924Z,93716.97
2023-03-23T18:12:09.573Z,93722.50
2023-03-23T18:13:07.873Z,93720.16
2023-03-23T18:14:04.632Z,93717.50
2023-03-23T18:15:01.287Z,93717.50
2023-03-23T18:15:58.227Z,93687.72
2023-03-23T18:16:55.476Z,93713.97
2023-03-23T18:17:52.330Z,93711.22
2023-03-23T18:18:49.306Z,93689.06
2023-03-23T18:19:46.714Z,93712.09
2023-03-23T18:20:43.408Z,93724.50
2023-03-23T18:21:40.113Z,93721.31
2023-03-23T18:22:37.121Z,93714.75
2023-03-23T18:23:39.101Z,93716.84
2023-03-23T18:24:39.984Z,93732.91
2023-03-23T18:25:37.923Z,93655.13
2023-03-23T18:26:34.931Z,93728.81
2023-03-23T18:27:32.362Z,93724.25
2023-03-23T18:28:29.272Z,93685.28
2023-03-23T18:29:25.939Z,93712.88
2023-03-23T18:30:23.924Z,93712.78
2023-03-23T18:31:21.295Z,93690.81
2023-03-23T18:32:19.790Z,93707.78
2023-03-23T18:33:19.063Z,93682.41
2023-03-23T18:34:17.204Z,93723.50
2023-03-23T18:35:14.098Z,93733.59
2023-03-23T18:36:11.236Z,93732.13
2023-03-23T18:37:08.268Z,93740.34
2023-03-23T18:38:04.908Z,93738.69
2023-03-23T18:39:01.832Z,93701.91
2023-03-23T18:39:58.752Z,93742.13
2023-03-23T18:40:55.682Z,93738.69
2023-03-23T18:41:52.326Z,93740.91
2023-03-23T18:42:49.256Z,93730.25
2023-03-23T18:43:46.626Z,93749.31
2023-03-23T18:44:43.215Z,93737.22
2023-03-23T18:45:40.333Z,93733.78
2023-03-23T18:46:37.454Z,93747.28
2023-03-23T18:47:34.267Z,93742.97
2023-03-23T18:48:31.250Z,93740.31
2023-03-23T18:49:29.080Z,93746.50
2023-03-23T18:50:25.981Z,93745.59
2023-03-23T18:51:22.954Z,93714.00
2023-03-23T18:52:19.582Z,93745.34
2023-03-23T18:53:16.669Z,93745.81
2023-03-23T18:54:13.534Z,93729.63
2023-03-23T18:55:10.577Z,93742.38
2023-03-23T18:56:13.291Z,93744.03
2023-03-23T18:57:12.118Z,93748.16
2023-03-23T18:58:08.905Z,93741.97
2023-03-23T18:59:06.487Z,93737.09
2023-03-23T19:00:04.726Z,93705.72
2023-03-23T19:01:07.221Z,93753.28
2023-03-23T19:02:04.534Z,93748.75
2023-03-23T19:03:01.475Z,93733.47
2023-03-23T19:03:58.233Z,93755.28
2023-03-23T19:04:54.921Z,93753.22
2023-03-23T19:05:51.493Z,93758.63
2023-03-23T19:06:49.610Z,93754.78
2023-03-23T19:07:46.390Z,93714.41
2023-03-23T19:08:43.374Z,93754.31
2023-03-23T19:09:43.773Z,93764.31
2023-03-23T19:10:42.649Z,93763.06
2023-03-23T19:11:39.313Z,93768.19
2023-03-23T19:12:36.133Z,93775.88
2023-03-23T19:13:37.543Z,93720.41
2023-03-23T19:14:36.591Z,93779.28
2023-03-23T19:15:33.286Z,93772.75
2023-03-23T19:16:32.900Z,93779.09
2023-03-23T19:17:29.709Z,93783.41
2023-03-23T19:18:26.380Z,93788.13
2023-03-23T19:19:24.909Z,93786.44
2023-03-23T19:20:57.335Z,93790.34
2023-03-23T19:21:47.035Z,93794.97
2023-03-23T19:22:43.952Z,93780.41
2023-03-23T19:23:41.561Z,93784.81
2023-03-23T19:24:38.543Z,93794.34
2023-03-23T19:25:35.181Z,93790.63
2023-03-23T19:26:37.672Z,93790.91
2023-03-23T19:29:15.443Z,93787.91
2023-03-23T19:29:50.729Z,93744.72
2023-03-23T19:30:52.521Z,93791.66
2023-03-23T19:31:49.460Z,93788.09
2023-03-23T19:32:46.124Z,93789.56
2023-03-23T19:33:43.716Z,93789.22
2023-03-23T19:34:40.872Z,93790.56
2023-03-23T19:35:37.662Z,93777.22
2023-03-23T19:36:35.646Z,93801.25
2023-03-23T19:37:34.730Z,93790.72
2023-03-23T19:38:31.765Z,93795.88
2023-03-23T19:39:28.386Z,93801.97
2023-03-23T19:40:39.564Z,93797.84
2023-03-23T19:41:37.611Z,93798.06
2023-03-23T19:42:34.594Z,93783.06
2023-03-23T19:43:31.341Z,93802.84
2023-03-23T19:44:28.847Z,93801.91
2023-03-23T19:45:25.855Z,93802.22
2023-03-23T19:46:22.668Z,93801.97
2023-03-23T19:47:19.313Z,93717.75
2023-03-23T19:48:17.440Z,93795.72
2023-03-23T19:49:14.757Z,93784.72
2023-03-23T19:50:11.525Z,93810.75
2023-03-23T19:51:09.776Z,93784.72
2023-03-23T19:52:12.717Z,93724.41
2023-03-23T19:53:10.706Z,93798.94
2023-03-23T19:54:07.998Z,93801.59
2023-03-23T19:55:04.989Z,93791.59
2023-03-23T19:56:03.589Z,93691.75
2023-03-23T19:57:01.254Z,93744.06
2023-03-23T19:57:57.924Z,93814.41
2023-03-23T19:58:54.753Z,93812.38
2023-03-23T19:59:51.716Z,93804.97
2023-03-23T20:00:48.855Z,93808.75
2023-03-23T20:01:45.518Z,93816.84
2023-03-23T20:02:42.391Z,93818.59
2023-03-23T20:03:39.647Z,93818.56
2023-03-23T20:04:36.484Z,93817.03
2023-03-23T20:05:35.172Z,93813.47
2023-03-23T20:06:31.930Z,93811.78
2023-03-23T20:07:28.699Z,93818.00
2023-03-23T20:08:25.978Z,93817.69
2023-03-23T20:09:22.706Z,93759.88
2023-03-23T20:10:19.437Z,93812.59
2023-03-23T20:11:18.652Z,93807.00
2023-03-23T20:12:16.168Z,93772.44
2023-03-23T20:13:13.821Z,93806.63
2023-03-23T20:14:11.865Z,93812.66
2023-03-23T20:15:08.842Z,93804.44
2023-03-23T20:16:06.881Z,93763.41
2023-03-23T20:17:05.693Z,93816.34
2023-03-23T20:18:02.777Z,93810.78
2023-03-23T20:19:00.340Z,93825.09
2023-03-23T20:19:57.419Z,93811.59
2023-03-23T20:21:04.777Z,93815.31
2023-03-23T20:22:02.389Z,93815.31
2023-03-23T20:22:59.183Z,93821.75
2023-03-23T20:23:58.511Z,93817.09
2023-03-23T20:24:55.287Z,93824.63
2023-03-23T20:25:52.191Z,93824.63
2023-03-23T20:26:48.984Z,93822.59
2023-03-23T20:27:46.551Z,93820.34
2023-03-23T20:28:43.744Z,93828.72
2023-03-23T20:29:40.682Z,93821.97
2023-03-23T20:30:38.248Z,93814.16
2023-03-23T20:31:38.412Z,93818.78
2023-03-23T20:32:37.360Z,93779.91
2023-03-23T20:33:35.519Z,93816.28
2023-03-23T20:34:32.167Z,93818.28
2023-03-23T20:35:29.521Z,93821.72
2023-03-23T20:36:29.725Z,93816.59
2023-03-23T20:37:27.100Z,93818.22
2023-03-23T20:38:27.435Z,93817.50
2023-03-23T20:39:25.498Z,93825.00
2023-03-23T20:40:22.221Z,93823.31
2023-03-23T20:41:20.766Z,93817.38
2023-03-23T20:42:17.597Z,93816.53
2023-03-23T20:43:14.282Z,93819.84
2023-03-23T20:44:16.075Z,93783.06
2023-03-23T20:45:13.401Z,93827.22
2023-03-23T20:46:12.522Z,93817.91
2023-03-23T20:47:09.645Z,93820.56
2023-03-23T20:48:06.373Z,93816.66
2023-03-23T20:49:05.385Z,93818.34
2023-03-23T20:50:02.178Z,93818.78
2023-03-23T20:51:00.497Z,93816.31
2023-03-23T20:51:57.368Z,93750.75
2023-03-23T20:52:54.561Z,93811.66
2023-03-23T20:53:51.734Z,93822.34
2023-03-23T20:54:50.805Z,93778.84
2023-03-23T20:55:47.560Z,93818.69
2023-03-23T20:56:45.968Z,93806.75
2023-03-23T20:57:43.336Z,93794.06
2023-03-23T20:58:40.968Z,93817.06
2023-03-23T20:59:37.679Z,93819.78
2023-03-23T21:00:34.354Z,93819.44
2023-03-23T21:01:33.230Z,93815.66
2023-03-23T21:02:30.190Z,93816.78
2023-03-23T21:03:29.249Z,93813.00
2023-03-23T21:04:27.519Z,93808.75
2023-03-23T21:05:24.790Z,93823.84
2023-03-23T21:06:21.708Z,93819.06
2023-03-23T21:07:19.108Z,93818.84
2023-03-23T21:08:18.266Z,93820.16
2023-03-23T21:09:17.422Z,93815.16
2023-03-23T21:10:14.287Z,93761.47
2023-03-23T21:11:18.293Z,93817.69
2023-03-23T21:12:14.965Z,93813.97
2023-03-23T21:13:14.674Z,93820.44
2023-03-23T21:14:11.918Z,93812.84
2023-03-23T21:15:08.585Z,93813.63
2023-03-23T21:16:06.021Z,93811.06
2023-03-23T21:17:03.899Z,93810.19
2023-03-23T21:18:01.071Z,93810.59
2023-03-23T21:18:57.683Z,93814.81
2023-03-23T21:19:54.370Z,93815.56
2023-03-23T21:20:51.028Z,93775.44
2023-03-23T21:21:56.364Z,93816.47
2023-03-23T21:22:53.877Z,93808.44
2023-03-23T21:23:53.017Z,93768.75
2023-03-23T21:24:52.774Z,93813.47
2023-03-23T21:25:49.413Z,93767.19
2023-03-23T21:26:46.039Z,93805.97
2023-03-23T21:27:42.746Z,93800.78
2023-03-23T21:28:39.382Z,93809.16
2023-03-23T21:29:36.086Z,93809.53
2023-03-23T21:30:33.048Z,93812.56
2023-03-23T21:31:33.055Z,93811.31
2023-03-23T21:32:29.887Z,93794.09
2023-03-23T21:33:26.648Z,93814.16
2023-03-23T21:34:23.422Z,93809.13
2023-03-23T21:35:20.378Z,93807.78
2023-03-23T21:36:17.055Z,93812.59
2023-03-23T21:37:15.169Z,93771.38
2023-03-23T21:38:14.431Z,93794.97
2023-03-23T21:39:11.176Z,93806.59
2023-03-23T21:40:13.601Z,93814.75
2023-03-23T21:41:12.564Z,93811.97
2023-03-23T21:42:09.236Z,93766.00
2023-03-23T21:43:05.880Z,93805.81
2023-03-23T21:44:10.246Z,93813.13
2023-03-23T21:45:07.886Z,93783.00
2023-03-23T21:46:06.064Z,93804.41
2023-03-23T21:47:03.225Z,93809.38
2023-03-23T21:48:00.261Z,93802.84
2023-03-23T21:48:58.848Z,93808.75
2023-03-23T21:49:56.653Z,93804.66
2023-03-23T21:50:54.019Z,93810.91
2023-03-23T21:51:50.912Z,93805.03
2023-03-23T21:52:51.007Z,93810.59
2023-03-23T21:53:47.921Z,93810.72
2023-03-23T21:54:45.690Z,93810.91
2023-03-23T21:55:43.615Z,93810.91
2023-03-23T21:56:40.301Z,93814.22
2023-03-23T21:57:37.246Z,93806.91
2023-03-23T21:58:34.583Z,93815.13
2023-03-23T21:59:31.244Z,93805.19
2023-03-23T22:00:29.748Z,93808.44
2023-03-23T22:01:28.233Z,93811.66
2023-03-23T22:02:24.983Z,93808.06
2023-03-23T22:03:23.625Z,93808.06
2023-03-23T22:04:21.047Z,93793.13
2023-03-23T22:05:18.009Z,93810.28
2023-03-23T22:06:21.037Z,93810.09
2023-03-23T22:07:18.108Z,93807.38
2023-03-23T22:08:14.709Z,93799.91
2023-03-23T22:09:11.788Z,93811.28
2023-03-23T22:10:10.327Z,93812.06
2023-03-23T22:11:11.789Z,93821.31
2023-03-23T22:12:09.365Z,93807.38
2023-03-23T22:13:06.591Z,93798.22
2023-03-23T22:14:04.282Z,93760.59
2023-03-23T22:15:01.103Z,93807.72
2023-03-23T22:16:02.574Z,93782.09
2023-03-23T22:17:00.527Z,93816.88
2023-03-23T22:17:57.200Z,93812.38
2023-03-23T22:18:55.453Z,93810.03
2023-03-23T22:19:52.277Z,93817.22
2023-03-23T22:20:49.273Z,93815.03
2023-03-23T22:21:46.572Z,93814.56
2023-03-23T22:22:43.169Z,93804.41
2023-03-23T22:23:40.837Z,93799.53
2023-03-23T22:24:37.464Z,93815.94
2023-03-23T22:25:36.208Z,93819.25
2023-03-23T22:26:33.294Z,93813.66
2023-03-23T22:27:29.926Z,93817.22
2023-03-23T22:28:28.570Z,93804.81
2023-03-23T22:29:25.524Z,93816.81
2023-03-23T22:30:22.563Z,93823.06
2023-03-23T22:31:26.492Z,93820.75
2023-03-23T22:32:23.454Z,93824.84
2023-03-23T22:33:20.233Z,93819.66
2023-03-23T22:34:17.228Z,93810.31
2023-03-23T22:35:14.052Z,93824.47
2023-03-23T22:36:11.259Z,93829.66
2023-03-23T22:37:08.362Z,93826.66
2023-03-23T22:38:05.143Z,93808.78
2023-03-23T22:39:02.455Z,93830.28
2023-03-23T22:39:59.416Z,93823.41
2023-03-23T22:41:01.221Z,93814.13
2023-03-23T22:41:58.091Z,93822.22
2023-03-23T22:42:54.848Z,93794.16
2023-03-23T22:43:51.586Z,93829.91
2023-03-23T22:44:48.244Z,93824.13
2023-03-23T22:45:44.956Z,93822.94
2023-03-23T22:46:42.240Z,93821.69
2023-03-23T22:47:39.178Z,93825.78
2023-03-23T22:48:36.181Z,93766.97
2023-03-23T22:49:32.863Z,93829.22
2023-03-23T22:50:29.618Z,93816.50
2023-03-23T22:51:26.389Z,93825.97
2023-03-23T22:52:23.010Z,93819.28
2023-03-23T22:53:20.938Z,93828.78
2023-03-23T22:54:17.600Z,93824.28
2023-03-23T22:55:14.306Z,93826.47
2023-03-23T22:56:12.027Z,93822.41
2023-03-23T22:57:08.803Z,93824.44
2023-03-23T22:58:05.654Z,93784.78
2023-03-23T22:59:02.663Z,93816.47
2023-03-23T22:59:59.476Z,93818.84
2023-03-23T23:01:12.525Z,93780.13
2023-03-23T23:02:09.112Z,93825.84
2023-03-23T23:03:07.570Z,93819.81
2023-03-23T23:04:04.427Z,93765.81
2023-03-23T23:05:01.082Z,93818.38
2023-03-23T23:05:58.980Z,93825.84
2023-03-23T23:07:06.459Z,93795.53
2023-03-23T23:08:14.147Z,93812.97
2023-03-23T23:09:12.051Z,93817.47
2023-03-23T23:10:09.589Z,93812.47
2023-03-23T23:11:06.928Z,93822.78
2023-03-23T23:12:03.689Z,93812.47
2023-03-23T23:13:00.612Z,93820.91
2023-03-23T23:13:57.305Z,93763.31
2023-03-23T23:14:53.962Z,93808.75
2023-03-23T23:15:53.106Z,93811.53
2023-03-23T23:16:49.731Z,93808.75
2023-03-23T23:17:47.111Z,93808.44
2023-03-23T23:18:46.542Z,93778.25
2023-03-23T23:19:43.488Z,93813.41
2023-03-23T23:20:41.089Z,93811.25
2023-03-23T23:21:37.710Z,93809.69
2023-03-23T23:22:34.408Z,93810.97
2023-03-23T23:23:31.736Z,93812.81
2023-03-23T23:24:29.471Z,93814.69
2023-03-23T23:25:26.226Z,93790.28
2023-03-23T23:26:23.315Z,93815.97
2023-03-23T23:27:20.030Z,93765.69
2023-03-23T23:28:17.544Z,93813.47
2023-03-23T23:29:14.098Z,93815.03
2023-03-23T23:30:12.576Z,93813.47
2023-03-23T23:31:22.657Z,93815.31
2023-03-23T23:32:19.451Z,93818.59
2023-03-23T23:33:16.160Z,93814.81
2023-03-23T23:34:13.908Z,93808.75
2023-03-23T23:35:12.840Z,93818.47
2023-03-23T23:36:12.204Z,93807.53
2023-03-23T23:37:09.116Z,93817.97
2023-03-23T23:38:07.373Z,93808.47
2023-03-23T23:39:06.735Z,93772.84
2023-03-23T23:40:07.726Z,93813.63
2023-03-23T23:41:04.596Z,93806.94
2023-03-23T23:42:01.638Z,93808.03
2023-03-23T23:42:58.854Z,93811.16
2023-03-23T23:43:55.627Z,93761.78
2023-03-23T23:44:52.324Z,93813.91
2023-03-23T23:45:48.956Z,93809.88
2023-03-23T23:46:46.204Z,93814.28
2023-03-23T23:47:43.331Z,93780.63
2023-03-23T23:48:40.691Z,93803.53
2023-03-23T23:49:37.666Z,93806.34
2023-03-23T23:50:35.039Z,93819.25
2023-03-23T23:51:34.200Z,93810.53
2023-03-23T23:52:30.997Z,93808.22
2023-03-23T23:53:27.816Z,93810.72
2023-03-23T23:54:29.935Z,93813.97
2023-03-23T23:55:27.782Z,93801.38
2023-03-23T23:56:25.324Z,93803.53
2023-03-23T23:57:22.188Z,93804.78
2023-03-23T23:58:22.164Z,93768.81
2023-03-23T23:59:18.801Z,93801.34
